ADDS TAF Data INFO
IDs: Format: Raw Decoded Include METARs

Data at: 1313 UTC 21 May 2018

KLUF 211258Z AUTO 00000KT 10SM CLR 19/02 A2974 RMK AO2 SLP059 T01850019 $

TAF KLUF 211201Z 2112/2218 VRB06KT 9999 FEW250 QNH2971INS
  BECMG 2117/2118 16012KT 9999 FEW220 QNH2967INS
  TEMPO 2120/2123 18012G20KT
  BECMG 2202/2203 20008KT 9999 SCT170 SCT220 QNH2972INS
  BECMG 2216/2217 17012KT 9999 FEW250 QNH2973INS TX34/2122Z TN19/2112Z